createdAt,value
2023-05-24T00:00:56.989Z,6.03
2023-05-24T00:04:01.973Z,5.37
2023-05-24T00:07:05.003Z,6.37
2023-05-24T00:10:08.605Z,5.87
2023-05-24T00:13:10.713Z,5.93
2023-05-24T00:16:12.775Z,7.67
2023-05-24T00:19:18.869Z,8.33
2023-05-24T00:22:21.908Z,7.73
2023-05-24T00:25:23.871Z,8.00
2023-05-24T00:28:25.904Z,7.57
2023-05-24T00:31:27.928Z,7.13
2023-05-24T00:34:30.424Z,7.83
2023-05-24T00:37:32.327Z,7.07
2023-05-24T00:40:34.756Z,7.23
2023-05-24T00:43:37.399Z,7.37
2023-05-24T00:46:39.972Z,7.20
2023-05-24T00:49:42.062Z,6.47
2023-05-24T00:52:44.178Z,6.53
2023-05-24T00:55:47.325Z,6.63
2023-05-24T00:58:51.370Z,6.53
2023-05-24T01:01:55.713Z,6.43
2023-05-24T01:04:58.492Z,6.07
2023-05-24T01:08:43.105Z,5.40
2023-05-24T01:12:03.758Z,5.97
2023-05-24T01:15:23.174Z,5.53
2023-05-24T01:18:48.140Z,5.90
2023-05-24T01:22:30.641Z,5.70
2023-05-24T01:25:47.100Z,6.03
2023-05-24T01:28:49.663Z,5.80
2023-05-24T01:31:51.814Z,5.33
2023-05-24T01:34:53.782Z,4.90
2023-05-24T01:37:55.815Z,4.70
2023-05-24T01:41:04.697Z,5.47
2023-05-24T01:44:25.214Z,5.10
2023-05-24T01:47:36.011Z,5.53
2023-05-24T01:50:53.093Z,5.30
2023-05-24T01:53:55.603Z,5.47
2023-05-24T01:56:58.132Z,5.00
2023-05-24T02:00:01.164Z,5.70
2023-05-24T02:03:03.671Z,5.97
2023-05-24T02:06:06.992Z,5.70
2023-05-24T02:09:09.110Z,6.57
2023-05-24T02:12:11.804Z,6.93
2023-05-24T02:15:15.104Z,7.23
2023-05-24T02:18:18.900Z,7.10
2023-05-24T02:21:21.162Z,6.13
2023-05-24T02:24:23.181Z,6.20
2023-05-24T02:27:25.138Z,6.77
2023-05-24T02:30:27.606Z,6.70
2023-05-24T02:33:30.312Z,6.83
2023-05-24T02:36:34.728Z,8.07
2023-05-24T02:39:36.780Z,7.50
2023-05-24T02:42:39.074Z,7.80
2023-05-24T02:45:41.520Z,8.67
2023-05-24T02:48:43.537Z,8.77
2023-05-24T02:51:46.132Z,8.53
2023-05-24T02:54:48.267Z,8.23
2023-05-24T02:57:50.284Z,8.93
2023-05-24T03:00:52.205Z,8.20
2023-05-24T03:03:54.762Z,8.63
2023-05-24T03:06:56.746Z,9.20
2023-05-24T03:09:59.142Z,8.43
2023-05-24T03:13:01.065Z,8.67
2023-05-24T03:16:03.090Z,9.00
2023-05-24T03:19:07.773Z,8.30
2023-05-24T03:22:11.861Z,8.50
2023-05-24T03:25:14.729Z,8.63
2023-05-24T03:28:16.707Z,8.97
2023-05-24T03:31:21.092Z,8.43
2023-05-24T03:34:24.262Z,8.90
2023-05-24T03:37:26.291Z,9.50
2023-05-24T03:40:32.613Z,10.43
2023-05-24T03:43:35.146Z,9.33
2023-05-24T03:46:37.489Z,9.67
2023-05-24T03:49:39.461Z,9.57
2023-05-24T03:52:42.947Z,10.80
2023-05-24T03:55:44.941Z,9.90
2023-05-24T03:58:47.609Z,9.50
2023-05-24T04:01:49.587Z,10.27
2023-05-24T04:04:51.894Z,9.80
2023-05-24T04:07:53.858Z,10.13
2023-05-24T04:10:56.062Z,10.83
2023-05-24T04:14:03.985Z,10.87
2023-05-24T04:17:06.943Z,12.03
2023-05-24T04:20:10.822Z,11.10
2023-05-24T04:23:12.893Z,10.90
2023-05-24T04:26:15.932Z,11.33
2023-05-24T04:29:18.494Z,12.03
2023-05-24T04:32:20.419Z,12.60
2023-05-24T04:35:23.044Z,10.67
2023-05-24T04:38:25.251Z,10.10
2023-05-24T04:41:29.382Z,11.60
2023-05-24T04:44:31.333Z,11.20
2023-05-24T04:47:33.386Z,10.67
2023-05-24T04:50:37.563Z,10.93
2023-05-24T04:53:39.744Z,9.43
2023-05-24T04:56:41.716Z,10.47
2023-05-24T04:59:44.187Z,9.27
2023-05-24T05:02:46.216Z,9.20
2023-05-24T05:05:48.279Z,10.53
2023-05-24T05:08:52.168Z,10.30
2023-05-24T05:11:54.656Z,10.23
2023-05-24T05:14:56.574Z,11.00
2023-05-24T05:17:59.172Z,11.03
2023-05-24T05:21:01.506Z,10.30
2023-05-24T05:24:04.466Z,9.80
2023-05-24T05:27:06.959Z,9.70
2023-05-24T05:30:10.079Z,10.37
2023-05-24T05:33:12.084Z,11.10
2023-05-24T05:36:15.032Z,10.83
2023-05-24T05:39:17.071Z,10.83
2023-05-24T05:42:19.198Z,11.33
2023-05-24T05:45:21.710Z,10.83
2023-05-24T05:48:23.781Z,10.27
2023-05-24T05:51:26.499Z,10.67
2023-05-24T05:54:29.331Z,10.60
2023-05-24T05:57:31.360Z,9.97
2023-05-24T06:00:33.445Z,11.10
2023-05-24T06:03:35.867Z,11.10
2023-05-24T06:06:37.903Z,10.53
2023-05-24T06:09:39.830Z,9.00
2023-05-24T06:12:41.837Z,10.40
2023-05-24T06:15:43.865Z,10.03
2023-05-24T06:19:01.293Z,9.87
2023-05-24T06:22:07.782Z,9.57
2023-05-24T06:25:10.036Z,10.33
2023-05-24T06:28:11.986Z,10.33
2023-05-24T06:31:14.161Z,11.40
2023-05-24T06:34:21.776Z,9.80
2023-05-24T06:37:26.024Z,9.57
2023-05-24T06:40:27.988Z,9.93
2023-05-24T06:43:31.301Z,10.57
2023-05-24T06:46:33.330Z,10.17
2023-05-24T06:49:36.031Z,10.10
2023-05-24T06:52:38.051Z,10.77
2023-05-24T06:55:40.080Z,10.60
2023-05-24T06:58:42.321Z,10.50
2023-05-24T07:01:44.525Z,10.93
2023-05-24T07:04:46.603Z,9.30
2023-05-24T07:07:48.620Z,9.70
2023-05-24T07:10:50.761Z,9.20
2023-05-24T07:13:52.822Z,10.53
2023-05-24T07:16:57.745Z,9.20
2023-05-24T07:20:01.773Z,9.97
2023-05-24T07:23:04.825Z,10.07
2023-05-24T07:26:07.745Z,9.97
2023-05-24T07:29:09.694Z,9.60
2023-05-24T07:32:12.576Z,8.17
2023-05-24T07:35:14.656Z,7.53
2023-05-24T07:38:17.000Z,6.53
2023-05-24T07:41:20.404Z,7.27
2023-05-24T07:44:23.022Z,6.93
2023-05-24T07:47:25.017Z,7.57
2023-05-24T07:50:27.447Z,7.47
2023-05-24T07:53:30.008Z,7.93
2023-05-24T07:56:32.833Z,7.53
2023-05-24T07:59:34.811Z,9.03
2023-05-24T08:02:37.417Z,8.03
2023-05-24T08:05:39.436Z,7.13
2023-05-24T08:08:41.754Z,8.10
2023-05-24T08:11:43.803Z,8.00
2023-05-24T08:14:45.950Z,8.77
2023-05-24T08:17:49.123Z,8.27
2023-05-24T08:20:51.635Z,8.50
2023-05-24T08:23:53.767Z,8.80
2023-05-24T08:26:59.409Z,8.33
2023-05-24T08:30:01.922Z,8.03
2023-05-24T08:33:04.054Z,6.97
2023-05-24T08:36:06.590Z,7.83
2023-05-24T08:39:09.650Z,7.30
2023-05-24T08:42:11.675Z,7.10
2023-05-24T08:45:15.549Z,6.87
2023-05-24T08:48:18.615Z,6.83
2023-05-24T08:51:21.121Z,6.23
2023-05-24T08:54:23.478Z,6.17
2023-05-24T08:57:31.318Z,6.00
2023-05-24T09:00:33.329Z,5.43
2023-05-24T09:03:37.726Z,6.37
2023-05-24T09:06:40.420Z,7.40
2023-05-24T09:09:48.794Z,7.73
2023-05-24T09:12:55.937Z,7.27
2023-05-24T09:16:00.310Z,7.40
2023-05-24T09:19:03.594Z,8.03
2023-05-24T09:22:07.969Z,8.20
2023-05-24T09:25:13.318Z,8.77
2023-05-24T09:28:18.049Z,7.40
2023-05-24T09:31:20.134Z,7.80
2023-05-24T09:34:22.114Z,8.10
2023-05-24T09:37:30.991Z,8.73
2023-05-24T09:40:35.008Z,6.70
2023-05-24T09:43:50.085Z,6.60
2023-05-24T09:46:52.746Z,6.50
2023-05-24T09:49:54.741Z,6.13
2023-05-24T09:52:57.215Z,6.97
2023-05-24T09:55:59.351Z,6.20
2023-05-24T09:59:08.497Z,4.93
2023-05-24T10:02:12.758Z,6.37
2023-05-24T10:05:15.065Z,5.20
2023-05-24T10:08:18.583Z,5.53
2023-05-24T10:11:21.373Z,5.73
2023-05-24T10:14:25.685Z,4.90
2023-05-24T10:17:28.813Z,5.77
2023-05-24T10:20:32.045Z,5.83
2023-05-24T10:23:35.208Z,6.37
2023-05-24T10:26:39.159Z,6.33
2023-05-24T10:29:49.422Z,7.30
2023-05-24T10:32:53.748Z,7.50
2023-05-24T10:35:56.976Z,6.97
2023-05-24T10:38:58.940Z,8.10
2023-05-24T10:42:09.522Z,7.33
2023-05-24T10:45:40.844Z,8.43
2023-05-24T10:48:43.512Z,8.00
2023-05-24T10:51:46.332Z,8.13
2023-05-24T10:55:05.384Z,7.33
2023-05-24T10:58:08.051Z,7.83
2023-05-24T11:01:36.267Z,8.20
2023-05-24T11:04:44.022Z,7.50
2023-05-24T11:07:46.402Z,7.57
2023-05-24T11:10:48.426Z,7.13
2023-05-24T11:13:57.250Z,7.50
2023-05-24T11:17:03.166Z,8.47
2023-05-24T11:20:09.774Z,7.60
2023-05-24T11:23:11.916Z,8.37
2023-05-24T11:26:15.337Z,8.60
2023-05-24T11:29:23.398Z,8.00
2023-05-24T11:32:26.099Z,7.67
2023-05-24T11:35:28.482Z,7.63
2023-05-24T11:38:30.842Z,8.40
2023-05-24T11:41:38.798Z,7.33
2023-05-24T11:44:41.042Z,7.67
2023-05-24T11:47:43.112Z,8.30
2023-05-24T11:50:49.781Z,8.57
2023-05-24T11:53:54.390Z,8.00
2023-05-24T11:56:56.976Z,8.93
2023-05-24T11:59:58.940Z,9.47
2023-05-24T12:03:05.388Z,9.40
2023-05-24T12:06:07.431Z,8.60
2023-05-24T12:09:14.709Z,9.07
2023-05-24T12:12:17.094Z,9.00
2023-05-24T12:15:19.187Z,9.07
2023-05-24T12:18:29.905Z,9.07
2023-05-24T12:21:34.100Z,8.90
2023-05-24T12:24:37.978Z,9.23
2023-05-24T12:27:48.072Z,8.40
2023-05-24T12:30:50.235Z,9.37
2023-05-24T12:33:54.303Z,8.23
2023-05-24T12:36:56.960Z,9.43
2023-05-24T12:40:01.835Z,9.17
2023-05-24T12:43:05.074Z,8.90
2023-05-24T12:46:07.284Z,8.93
2023-05-24T12:49:10.415Z,9.50
2023-05-24T12:52:12.844Z,8.93
2023-05-24T12:55:18.265Z,8.97
2023-05-24T12:58:20.264Z,9.90
2023-05-24T13:01:22.425Z,10.40
2023-05-24T13:04:26.666Z,10.53
2023-05-24T13:07:28.672Z,10.07
2023-05-24T13:10:30.827Z,10.03
2023-05-24T13:13:32.817Z,10.60
2023-05-24T13:16:35.808Z,11.80
2023-05-24T13:19:37.944Z,12.20
2023-05-24T13:22:40.767Z,12.23
2023-05-24T13:25:43.157Z,10.87
2023-05-24T13:29:07.663Z,10.17
2023-05-24T13:32:07.042Z,10.37
2023-05-24T13:35:09.488Z,10.57
2023-05-24T13:38:11.549Z,10.30
2023-05-24T13:41:14.015Z,11.00
2023-05-24T13:44:17.157Z,10.87
2023-05-24T13:47:31.167Z,10.33
2023-05-24T13:50:41.778Z,10.80
2023-05-24T13:53:44.143Z,11.77
2023-05-24T13:56:49.167Z,11.13
2023-05-24T13:59:51.173Z,11.80
2023-05-24T14:02:53.284Z,11.43
2023-05-24T14:05:56.818Z,10.33
2023-05-24T14:08:59.701Z,10.73
2023-05-24T14:12:03.716Z,10.50
2023-05-24T14:15:06.931Z,10.90
2023-05-24T14:18:09.118Z,10.00
2023-05-24T14:21:11.905Z,9.67
2023-05-24T14:24:13.951Z,10.77
2023-05-24T14:27:16.036Z,11.33
2023-05-24T14:30:17.998Z,9.83
2023-05-24T14:33:20.019Z,10.73
2023-05-24T14:36:22.136Z,10.07
2023-05-24T14:39:24.582Z,10.00
2023-05-24T14:42:27.230Z,11.10
2023-05-24T14:45:29.273Z,10.47
2023-05-24T14:48:31.436Z,11.47
2023-05-24T14:51:33.502Z,11.37
2023-05-24T14:54:35.552Z,11.47
2023-05-24T14:57:37.542Z,12.47
2023-05-24T15:00:43.024Z,11.63
2023-05-24T15:03:45.515Z,11.40
2023-05-24T15:06:47.563Z,11.47
2023-05-24T15:09:49.511Z,12.03
2023-05-24T15:12:52.985Z,12.97
2023-05-24T15:15:56.814Z,12.97
2023-05-24T15:18:59.323Z,11.23
2023-05-24T15:22:02.004Z,9.60
2023-05-24T15:25:04.326Z,10.60
2023-05-24T15:28:06.721Z,9.97
2023-05-24T15:31:08.872Z,10.20
2023-05-24T15:34:11.940Z,10.20
2023-05-24T15:37:13.851Z,10.60
2023-05-24T15:40:16.487Z,10.93
2023-05-24T15:43:19.436Z,10.60
2023-05-24T15:46:22.171Z,11.00
2023-05-24T15:49:24.227Z,11.83
2023-05-24T15:52:26.161Z,11.27
2023-05-24T15:55:28.993Z,11.33
2023-05-24T15:58:31.225Z,11.27
2023-05-24T16:01:33.278Z,11.13
2023-05-24T16:04:35.357Z,11.80
2023-05-24T16:07:37.525Z,11.40
2023-05-24T16:10:39.484Z,11.83
2023-05-24T16:13:41.744Z,12.70
2023-05-24T16:16:46.522Z,12.70
2023-05-24T16:19:49.853Z,10.77
2023-05-24T16:22:52.054Z,10.87
2023-05-24T16:25:54.155Z,11.30
2023-05-24T16:28:56.189Z,11.20
2023-05-24T16:31:58.298Z,11.70
2023-05-24T16:35:00.335Z,10.70
2023-05-24T16:38:04.848Z,10.23
2023-05-24T16:41:06.866Z,11.30
2023-05-24T16:44:09.303Z,11.93
2023-05-24T16:47:11.375Z,9.93
2023-05-24T16:50:16.442Z,9.77
2023-05-24T16:53:20.735Z,10.20
2023-05-24T16:56:23.950Z,10.77
2023-05-24T16:59:25.957Z,10.47
2023-05-24T17:02:28.018Z,9.53
2023-05-24T17:05:30.011Z,9.83
2023-05-24T17:08:36.643Z,9.67
2023-05-24T17:11:38.670Z,9.80
2023-05-24T17:14:42.017Z,9.73
2023-05-24T17:17:43.992Z,9.57
2023-05-24T17:20:46.827Z,9.40
2023-05-24T17:23:49.180Z,9.57
2023-05-24T17:26:51.171Z,9.73
2023-05-24T17:29:53.140Z,9.87
2023-05-24T17:32:55.305Z,9.07
2023-05-24T17:35:57.877Z,9.33
2023-05-24T17:38:59.955Z,10.40
2023-05-24T17:42:01.884Z,8.97
2023-05-24T17:45:05.168Z,9.40
2023-05-24T17:48:07.370Z,8.60
2023-05-24T17:51:10.739Z,9.47
2023-05-24T17:54:12.650Z,10.70
2023-05-24T17:57:14.686Z,9.97
2023-05-24T18:00:17.234Z,9.20
2023-05-24T18:03:20.055Z,9.83
2023-05-24T18:06:22.421Z,9.30
2023-05-24T18:09:24.498Z,8.53
2023-05-24T18:12:27.183Z,9.17
2023-05-24T18:15:29.252Z,9.27
2023-05-24T18:18:31.395Z,9.07
2023-05-24T18:21:33.520Z,8.73
2023-05-24T18:24:35.476Z,9.33
2023-05-24T18:27:38.020Z,8.37
2023-05-24T18:30:40.129Z,8.17
2023-05-24T18:33:42.337Z,7.90
2023-05-24T18:36:44.796Z,6.27
2023-05-24T18:39:46.845Z,5.73
2023-05-24T18:42:48.858Z,8.53
2023-05-24T18:45:50.798Z,4.80
2023-05-24T18:48:54.335Z,4.87
2023-05-24T18:51:56.364Z,4.50
2023-05-24T18:54:59.433Z,4.60
2023-05-24T18:58:01.551Z,4.13
2023-05-24T19:01:03.603Z,4.67
2023-05-24T19:04:06.978Z,4.70
2023-05-24T19:07:09.510Z,4.80
2023-05-24T19:10:11.806Z,5.07
2023-05-24T19:13:13.740Z,4.70
2023-05-24T19:16:17.993Z,4.10
2023-05-24T19:19:19.997Z,4.07
2023-05-24T19:22:21.979Z,5.13
2023-05-24T19:25:23.920Z,4.90
2023-05-24T19:28:26.394Z,5.60
2023-05-24T19:31:29.774Z,4.40
2023-05-24T19:34:32.491Z,4.53
2023-05-24T19:37:34.494Z,3.90
2023-05-24T19:40:36.995Z,4.03
2023-05-24T19:43:39.124Z,3.80
2023-05-24T19:46:41.206Z,3.33
2023-05-24T19:49:43.487Z,3.10
2023-05-24T19:52:45.423Z,3.50
2023-05-24T19:55:47.375Z,3.67
2023-05-24T19:58:50.317Z,4.03
2023-05-24T20:01:52.291Z,4.17
2023-05-24T20:04:54.396Z,4.27
2023-05-24T20:07:56.315Z,4.00
2023-05-24T20:10:58.983Z,4.33
2023-05-24T20:14:01.376Z,4.00
2023-05-24T20:17:03.764Z,4.03
2023-05-24T20:20:07.456Z,3.33
2023-05-24T20:23:09.587Z,3.50
2023-05-24T20:26:11.655Z,3.90
2023-05-24T20:29:14.026Z,4.07
2023-05-24T20:32:16.596Z,3.30
2023-05-24T20:35:19.026Z,4.13
2023-05-24T20:38:23.554Z,4.07
2023-05-24T20:41:27.020Z,3.20
2023-05-24T20:44:28.873Z,3.80
2023-05-24T20:47:31.139Z,4.20
2023-05-24T20:50:33.194Z,4.07
2023-05-24T20:53:35.730Z,3.73
2023-05-24T20:56:37.782Z,3.73
2023-05-24T20:59:39.739Z,4.20
2023-05-24T21:02:41.697Z,4.60
2023-05-24T21:05:44.146Z,4.47
2023-05-24T21:08:47.287Z,4.43
2023-05-24T21:11:49.305Z,4.37
2023-05-24T21:14:54.186Z,4.23
2023-05-24T21:17:56.757Z,3.77
2023-05-24T21:20:58.755Z,3.53
2023-05-24T21:24:01.508Z,3.90
2023-05-24T21:27:03.492Z,3.60
2023-05-24T21:30:07.700Z,3.93
2023-05-24T21:33:10.158Z,3.87
2023-05-24T21:36:12.162Z,4.63
2023-05-24T21:39:14.203Z,4.20
2023-05-24T21:42:16.884Z,4.60
2023-05-24T21:45:18.893Z,3.60
2023-05-24T21:48:21.460Z,3.40
2023-05-24T21:51:24.013Z,4.00
2023-05-24T21:54:26.124Z,3.87
2023-05-24T21:57:28.140Z,4.33
2023-05-24T22:00:30.833Z,4.23
2023-05-24T22:03:32.966Z,5.00
2023-05-24T22:06:35.277Z,5.53
2023-05-24T22:09:37.209Z,5.47
2023-05-24T22:12:39.302Z,6.50
2023-05-24T22:15:41.425Z,8.03
2023-05-24T22:18:43.699Z,7.13
2023-05-24T22:21:46.262Z,6.70
2023-05-24T22:24:48.810Z,6.70
2023-05-24T22:27:51.492Z,7.47
2023-05-24T22:30:53.617Z,7.87
2023-05-24T22:33:56.584Z,8.90
2023-05-24T22:36:58.855Z,8.37
2023-05-24T22:40:01.386Z,8.77
2023-05-24T22:43:03.635Z,8.57
2023-05-24T22:46:06.675Z,13.13
2023-05-24T22:49:13.494Z,10.00
2023-05-24T22:52:15.459Z,9.47
2023-05-24T22:55:17.524Z,10.03
2023-05-24T22:58:21.975Z,10.47
2023-05-24T23:01:24.076Z,9.93
2023-05-24T23:04:27.786Z,8.97
2023-05-24T23:07:30.404Z,9.60
2023-05-24T23:10:32.450Z,11.67
2023-05-24T23:13:36.275Z,12.30
2023-05-24T23:16:45.997Z,11.27
2023-05-24T23:19:50.582Z,11.70
2023-05-24T23:22:53.263Z,12.30
2023-05-24T23:25:55.236Z,13.57
2023-05-24T23:28:57.254Z,15.23
2023-05-24T23:32:00.060Z,14.93
2023-05-24T23:35:02.272Z,15.90
2023-05-24T23:38:05.083Z,14.70
2023-05-24T23:41:07.002Z,15.43
2023-05-24T23:44:09.081Z,14.50
2023-05-24T23:47:11.726Z,15.13
2023-05-24T23:50:17.847Z,14.83
2023-05-24T23:53:19.764Z,13.30
2023-05-24T23:56:21.718Z,14.17
2023-05-24T23:59:23.601Z,15.73
